sensor_id;sensor_type;location;lat;lon;timestamp;P1;durP1;ratioP1;P2;durP2;ratioP2
10343;SDS011;5217;43.960;10.954;2022-09-09T00:01:22;6.47;;;2.25;;
10343;SDS011;5217;43.960;10.954;2022-09-09T00:03:59;5.63;;;2.10;;
10343;SDS011;5217;43.960;10.954;2022-09-09T00:06:33;5.03;;;2.10;;
10343;SDS011;5217;43.960;10.954;2022-09-09T00:09:12;5.22;;;2.05;;
10343;SDS011;5217;43.960;10.954;2022-09-09T00:11:45;7.30;;;2.38;;
10343;SDS011;5217;43.960;10.954;2022-09-09T00:14:18;5.18;;;1.92;;
10343;SDS011;5217;43.960;10.954;2022-09-09T00:16:55;5.30;;;2.10;;
10343;SDS011;5217;43.960;10.954;2022-09-09T00:19:31;4.97;;;2.15;;
10343;SDS011;5217;43.960;10.954;2022-09-09T00:22:08;8.98;;;2.25;;
10343;SDS011;5217;43.960;10.954;2022-09-09T00:24:44;5.40;;;2.15;;
10343;SDS011;5217;43.960;10.954;2022-09-09T00:27:16;8.60;;;2.30;;
10343;SDS011;5217;43.960;10.954;2022-09-09T00:29:52;5.82;;;2.03;;
10343;SDS011;5217;43.960;10.954;2022-09-09T00:32:24;5.50;;;1.88;;
10343;SDS011;5217;43.960;10.954;2022-09-09T00:34:58;6.78;;;2.20;;
10343;SDS011;5217;43.960;10.954;2022-09-09T00:37:33;8.50;;;2.30;;
10343;SDS011;5217;43.960;10.954;2022-09-09T00:40:03;4.25;;;2.05;;
10343;SDS011;5217;43.960;10.954;2022-09-09T00:42:43;7.50;;;2.20;;
10343;SDS011;5217;43.960;10.954;2022-09-09T00:45:17;8.63;;;2.20;;
10343;SDS011;5217;43.960;10.954;2022-09-09T00:47:57;6.85;;;2.22;;
10343;SDS011;5217;43.960;10.954;2022-09-09T00:50:35;6.53;;;2.20;;
10343;SDS011;5217;43.960;10.954;2022-09-09T00:53:19;6.45;;;2.33;;
10343;SDS011;5217;43.960;10.954;2022-09-09T00:55:59;6.40;;;2.45;;
10343;SDS011;5217;43.960;10.954;2022-09-09T00:58:35;7.60;;;2.42;;
10343;SDS011;5217;43.960;10.954;2022-09-09T01:01:04;4.40;;;2.03;;
10343;SDS011;5217;43.960;10.954;2022-09-09T01:03:34;7.40;;;2.13;;
10343;SDS011;5217;43.960;10.954;2022-09-09T01:06:12;7.15;;;2.35;;
10343;SDS011;5217;43.960;10.954;2022-09-09T01:08:49;6.15;;;2.30;;
10343;SDS011;5217;43.960;10.954;2022-09-09T01:11:37;6.93;;;2.38;;
10343;SDS011;5217;43.960;10.954;2022-09-09T01:14:20;6.50;;;2.63;;
10343;SDS011;5217;43.960;10.954;2022-09-09T01:16:59;5.78;;;2.40;;
10343;SDS011;5217;43.960;10.954;2022-09-09T01:19:35;4.70;;;2.20;;
10343;SDS011;5217;43.960;10.954;2022-09-09T01:22:09;5.50;;;2.30;;
10343;SDS011;5217;43.960;10.954;2022-09-09T01:24:46;7.30;;;2.58;;
10343;SDS011;5217;43.960;10.954;2022-09-09T01:27:36;8.57;;;2.75;;
10343;SDS011;5217;43.960;10.954;2022-09-09T01:30:08;9.27;;;2.72;;
10343;SDS011;5217;43.960;10.954;2022-09-09T01:32:40;7.85;;;2.45;;
10343;SDS011;5217;43.960;10.954;2022-09-09T01:35:11;5.22;;;2.38;;
10343;SDS011;5217;43.960;10.954;2022-09-09T01:37:45;5.43;;;2.60;;
10343;SDS011;5217;43.960;10.954;2022-09-09T01:40:13;6.60;;;2.25;;
10343;SDS011;5217;43.960;10.954;2022-09-09T01:42:43;6.35;;;2.50;;
10343;SDS011;5217;43.960;10.954;2022-09-09T01:45:11;5.55;;;2.17;;
10343;SDS011;5217;43.960;10.954;2022-09-09T01:47:40;5.45;;;2.45;;
10343;SDS011;5217;43.960;10.954;2022-09-09T01:50:09;5.68;;;2.50;;
10343;SDS011;5217;43.960;10.954;2022-09-09T01:52:40;5.63;;;2.47;;
10343;SDS011;5217;43.960;10.954;2022-09-09T01:55:10;7.22;;;2.55;;
10343;SDS011;5217;43.960;10.954;2022-09-09T01:57:39;5.38;;;2.40;;
10343;SDS011;5217;43.960;10.954;2022-09-09T02:00:17;7.60;;;2.65;;
10343;SDS011;5217;43.960;10.954;2022-09-09T02:02:48;4.50;;;2.03;;
10343;SDS011;5217;43.960;10.954;2022-09-09T02:05:27;6.03;;;2.33;;
10343;SDS011;5217;43.960;10.954;2022-09-09T02:08:05;4.72;;;2.40;;
10343;SDS011;5217;43.960;10.954;2022-09-09T02:10:36;6.53;;;2.38;;
10343;SDS011;5217;43.960;10.954;2022-09-09T02:13:12;6.03;;;2.47;;
10343;SDS011;5217;43.960;10.954;2022-09-09T02:15:42;5.60;;;2.20;;
10343;SDS011;5217;43.960;10.954;2022-09-09T02:18:14;5.63;;;2.50;;
10343;SDS011;5217;43.960;10.954;2022-09-09T02:20:48;6.22;;;2.33;;
10343;SDS011;5217;43.960;10.954;2022-09-09T02:23:18;4.35;;;1.95;;
10343;SDS011;5217;43.960;10.954;2022-09-09T02:25:48;5.53;;;2.40;;
10343;SDS011;5217;43.960;10.954;2022-09-09T02:28:20;6.70;;;2.35;;
10343;SDS011;5217;43.960;10.954;2022-09-09T02:30:51;5.50;;;2.47;;
10343;SDS011;5217;43.960;10.954;2022-09-09T02:33:22;6.80;;;2.58;;
10343;SDS011;5217;43.960;10.954;2022-09-09T02:35:54;5.63;;;2.50;;
10343;SDS011;5217;43.960;10.954;2022-09-09T02:38:28;5.15;;;2.40;;
10343;SDS011;5217;43.960;10.954;2022-09-09T02:41:02;7.30;;;2.20;;
10343;SDS011;5217;43.960;10.954;2022-09-09T02:43:32;4.70;;;2.30;;
10343;SDS011;5217;43.960;10.954;2022-09-09T02:46:03;7.20;;;2.28;;
10343;SDS011;5217;43.960;10.954;2022-09-09T02:48:51;9.32;;;2.67;;
10343;SDS011;5217;43.960;10.954;2022-09-09T02:51:27;5.55;;;2.30;;
10343;SDS011;5217;43.960;10.954;2022-09-09T02:54:04;7.45;;;2.85;;
10343;SDS011;5217;43.960;10.954;2022-09-09T02:56:40;6.68;;;2.50;;
10343;SDS011;5217;43.960;10.954;2022-09-09T02:59:15;7.65;;;3.25;;
10343;SDS011;5217;43.960;10.954;2022-09-09T03:01:44;5.82;;;2.38;;
10343;SDS011;5217;43.960;10.954;2022-09-09T03:04:13;5.32;;;2.20;;
10343;SDS011;5217;43.960;10.954;2022-09-09T03:06:41;8.38;;;2.50;;
10343;SDS011;5217;43.960;10.954;2022-09-09T03:09:10;6.72;;;2.50;;
10343;SDS011;5217;43.960;10.954;2022-09-09T03:11:38;5.38;;;2.45;;
10343;SDS011;5217;43.960;10.954;2022-09-09T03:14:07;8.63;;;2.83;;
10343;SDS011;5217;43.960;10.954;2022-09-09T03:16:39;6.32;;;2.40;;
10343;SDS011;5217;43.960;10.954;2022-09-09T03:19:08;6.60;;;2.17;;
10343;SDS011;5217;43.960;10.954;2022-09-09T03:21:37;6.28;;;2.70;;
10343;SDS011;5217;43.960;10.954;2022-09-09T03:24:05;5.25;;;2.40;;
10343;SDS011;5217;43.960;10.954;2022-09-09T03:26:33;7.68;;;2.85;;
10343;SDS011;5217;43.960;10.954;2022-09-09T03:29:03;5.68;;;2.58;;
10343;SDS011;5217;43.960;10.954;2022-09-09T03:31:32;5.30;;;2.60;;
10343;SDS011;5217;43.960;10.954;2022-09-09T03:34:03;4.40;;;2.40;;
10343;SDS011;5217;43.960;10.954;2022-09-09T03:36:32;5.30;;;2.38;;
10343;SDS011;5217;43.960;10.954;2022-09-09T03:39:00;7.28;;;2.72;;
10343;SDS011;5217;43.960;10.954;2022-09-09T03:41:30;5.75;;;2.70;;
10343;SDS011;5217;43.960;10.954;2022-09-09T03:43:58;7.50;;;2.63;;
10343;SDS011;5217;43.960;10.954;2022-09-09T03:46:26;5.28;;;2.28;;
10343;SDS011;5217;43.960;10.954;2022-09-09T03:48:54;7.32;;;2.90;;
10343;SDS011;5217;43.960;10.954;2022-09-09T03:51:24;7.32;;;2.78;;
10343;SDS011;5217;43.960;10.954;2022-09-09T03:53:53;7.82;;;2.42;;
10343;SDS011;5217;43.960;10.954;2022-09-09T03:56:23;9.10;;;2.85;;
10343;SDS011;5217;43.960;10.954;2022-09-09T03:58:51;5.88;;;2.42;;
10343;SDS011;5217;43.960;10.954;2022-09-09T04:01:20;7.38;;;2.67;;
10343;SDS011;5217;43.960;10.954;2022-09-09T04:03:48;6.20;;;2.60;;
10343;SDS011;5217;43.960;10.954;2022-09-09T04:06:19;5.65;;;2.40;;
10343;SDS011;5217;43.960;10.954;2022-09-09T04:08:49;9.27;;;3.05;;
10343;SDS011;5217;43.960;10.954;2022-09-09T04:11:18;6.72;;;2.60;;
10343;SDS011;5217;43.960;10.954;2022-09-09T04:13:47;7.43;;;2.60;;
10343;SDS011;5217;43.960;10.954;2022-09-09T04:16:16;5.80;;;2.20;;
10343;SDS011;5217;43.960;10.954;2022-09-09T04:18:44;8.43;;;2.65;;
10343;SDS011;5217;43.960;10.954;2022-09-09T04:21:13;4.57;;;2.22;;
10343;SDS011;5217;43.960;10.954;2022-09-09T04:23:42;8.80;;;3.10;;
10343;SDS011;5217;43.960;10.954;2022-09-09T04:26:12;6.93;;;2.50;;
10343;SDS011;5217;43.960;10.954;2022-09-09T04:28:40;7.68;;;2.38;;
10343;SDS011;5217;43.960;10.954;2022-09-09T04:31:09;5.22;;;2.42;;
10343;SDS011;5217;43.960;10.954;2022-09-09T04:33:41;4.60;;;2.13;;
10343;SDS011;5217;43.960;10.954;2022-09-09T04:36:09;7.55;;;2.40;;
10343;SDS011;5217;43.960;10.954;2022-09-09T04:38:38;5.63;;;2.45;;
10343;SDS011;5217;43.960;10.954;2022-09-09T04:41:07;6.90;;;2.60;;
10343;SDS011;5217;43.960;10.954;2022-09-09T04:43:38;8.45;;;2.80;;
10343;SDS011;5217;43.960;10.954;2022-09-09T04:46:07;4.65;;;2.10;;
10343;SDS011;5217;43.960;10.954;2022-09-09T04:48:35;9.10;;;2.78;;
10343;SDS011;5217;43.960;10.954;2022-09-09T04:51:04;10.15;;;3.03;;
10343;SDS011;5217;43.960;10.954;2022-09-09T04:53:36;6.90;;;2.35;;
10343;SDS011;5217;43.960;10.954;2022-09-09T04:56:05;6.03;;;2.60;;
10343;SDS011;5217;43.960;10.954;2022-09-09T04:58:36;6.05;;;2.65;;
10343;SDS011;5217;43.960;10.954;2022-09-09T05:01:09;4.82;;;2.30;;
10343;SDS011;5217;43.960;10.954;2022-09-09T05:03:38;6.50;;;2.70;;
10343;SDS011;5217;43.960;10.954;2022-09-09T05:06:07;8.32;;;2.70;;
10343;SDS011;5217;43.960;10.954;2022-09-09T05:08:37;9.38;;;2.95;;
10343;SDS011;5217;43.960;10.954;2022-09-09T05:11:13;7.72;;;2.65;;
10343;SDS011;5217;43.960;10.954;2022-09-09T05:13:46;9.27;;;2.90;;
10343;SDS011;5217;43.960;10.954;2022-09-09T05:16:16;5.25;;;2.47;;
10343;SDS011;5217;43.960;10.954;2022-09-09T05:18:45;5.13;;;2.65;;
10343;SDS011;5217;43.960;10.954;2022-09-09T05:21:14;5.85;;;2.90;;
10343;SDS011;5217;43.960;10.954;2022-09-09T05:23:44;6.03;;;3.00;;
10343;SDS011;5217;43.960;10.954;2022-09-09T05:26:13;7.50;;;2.78;;
10343;SDS011;5217;43.960;10.954;2022-09-09T05:28:43;7.35;;;2.90;;
10343;SDS011;5217;43.960;10.954;2022-09-09T05:31:14;5.32;;;2.67;;
10343;SDS011;5217;43.960;10.954;2022-09-09T05:33:44;6.38;;;2.80;;
10343;SDS011;5217;43.960;10.954;2022-09-09T05:36:15;8.13;;;2.97;;
10343;SDS011;5217;43.960;10.954;2022-09-09T05:38:44;5.55;;;2.78;;
10343;SDS011;5217;43.960;10.954;2022-09-09T05:41:13;4.50;;;2.50;;
10343;SDS011;5217;43.960;10.954;2022-09-09T05:43:43;4.30;;;2.35;;
10343;SDS011;5217;43.960;10.954;2022-09-09T05:46:15;10.38;;;3.20;;
10343;SDS011;5217;43.960;10.954;2022-09-09T05:48:46;9.65;;;3.05;;
10343;SDS011;5217;43.960;10.954;2022-09-09T05:51:17;7.35;;;3.22;;
10343;SDS011;5217;43.960;10.954;2022-09-09T05:53:48;7.97;;;3.08;;
10343;SDS011;5217;43.960;10.954;2022-09-09T05:56:17;5.40;;;2.60;;
10343;SDS011;5217;43.960;10.954;2022-09-09T05:58:48;6.85;;;2.83;;
10343;SDS011;5217;43.960;10.954;2022-09-09T06:01:20;8.32;;;2.90;;
10343;SDS011;5217;43.960;10.954;2022-09-09T06:03:50;6.43;;;2.80;;
10343;SDS011;5217;43.960;10.954;2022-09-09T06:06:19;8.30;;;3.22;;
10343;SDS011;5217;43.960;10.954;2022-09-09T06:08:50;7.75;;;2.92;;
10343;SDS011;5217;43.960;10.954;2022-09-09T06:11:20;6.35;;;2.97;;
10343;SDS011;5217;43.960;10.954;2022-09-09T06:13:49;6.93;;;2.58;;
10343;SDS011;5217;43.960;10.954;2022-09-09T06:16:22;7.68;;;2.70;;
10343;SDS011;5217;43.960;10.954;2022-09-09T06:18:52;7.22;;;3.10;;
10343;SDS011;5217;43.960;10.954;2022-09-09T06:21:23;13.13;;;3.38;;
10343;SDS011;5217;43.960;10.954;2022-09-09T06:23:52;9.75;;;3.40;;
10343;SDS011;5217;43.960;10.954;2022-09-09T06:26:26;10.00;;;3.80;;
10343;SDS011;5217;43.960;10.954;2022-09-09T06:29:23;8.52;;;3.67;;
10343;SDS011;5217;43.960;10.954;2022-09-09T06:31:53;7.20;;;3.20;;
10343;SDS011;5217;43.960;10.954;2022-09-09T06:34:22;6.97;;;3.38;;
10343;SDS011;5217;43.960;10.954;2022-09-09T06:36:50;7.38;;;3.47;;
10343;SDS011;5217;43.960;10.954;2022-09-09T06:39:18;7.28;;;3.42;;
10343;SDS011;5217;43.960;10.954;2022-09-09T06:41:48;23.83;;;3.72;;
10343;SDS011;5217;43.960;10.954;2022-09-09T06:44:23;14.30;;;3.55;;
10343;SDS011;5217;43.960;10.954;2022-09-09T06:47:00;6.75;;;3.30;;
10343;SDS011;5217;43.960;10.954;2022-09-09T06:49:28;8.30;;;3.50;;
10343;SDS011;5217;43.960;10.954;2022-09-09T06:51:56;6.78;;;3.28;;
10343;SDS011;5217;43.960;10.954;2022-09-09T06:54:25;11.43;;;3.65;;
10343;SDS011;5217;43.960;10.954;2022-09-09T06:56:54;6.50;;;2.83;;
10343;SDS011;5217;43.960;10.954;2022-09-09T06:59:22;5.88;;;3.40;;
10343;SDS011;5217;43.960;10.954;2022-09-09T07:01:51;10.57;;;3.70;;
10343;SDS011;5217;43.960;10.954;2022-09-09T07:04:23;8.05;;;3.13;;
10343;SDS011;5217;43.960;10.954;2022-09-09T07:06:51;6.45;;;3.35;;
10343;SDS011;5217;43.960;10.954;2022-09-09T07:09:20;8.73;;;3.40;;
10343;SDS011;5217;43.960;10.954;2022-09-09T07:11:49;10.07;;;3.63;;
10343;SDS011;5217;43.960;10.954;2022-09-09T07:14:19;7.18;;;3.20;;
10343;SDS011;5217;43.960;10.954;2022-09-09T07:16:48;10.10;;;3.42;;
10343;SDS011;5217;43.960;10.954;2022-09-09T07:19:16;8.25;;;3.13;;
10343;SDS011;5217;43.960;10.954;2022-09-09T07:21:46;7.63;;;3.45;;
10343;SDS011;5217;43.960;10.954;2022-09-09T07:24:14;9.57;;;3.15;;
10343;SDS011;5217;43.960;10.954;2022-09-09T07:26:42;8.13;;;3.28;;
10343;SDS011;5217;43.960;10.954;2022-09-09T07:29:12;9.80;;;3.22;;
10343;SDS011;5217;43.960;10.954;2022-09-09T07:31:46;6.28;;;2.80;;
10343;SDS011;5217;43.960;10.954;2022-09-09T07:34:15;6.22;;;2.85;;
10343;SDS011;5217;43.960;10.954;2022-09-09T07:36:43;6.28;;;2.90;;
10343;SDS011;5217;43.960;10.954;2022-09-09T07:39:14;6.40;;;2.80;;
10343;SDS011;5217;43.960;10.954;2022-09-09T07:41:44;7.57;;;2.58;;
10343;SDS011;5217;43.960;10.954;2022-09-09T07:44:14;8.13;;;2.78;;
10343;SDS011;5217;43.960;10.954;2022-09-09T07:46:44;5.00;;;2.40;;
10343;SDS011;5217;43.960;10.954;2022-09-09T07:49:12;9.30;;;2.42;;
10343;SDS011;5217;43.960;10.954;2022-09-09T07:51:42;8.35;;;2.50;;
10343;SDS011;5217;43.960;10.954;2022-09-09T07:54:14;9.82;;;3.03;;
10343;SDS011;5217;43.960;10.954;2022-09-09T07:56:46;5.68;;;2.35;;
10343;SDS011;5217;43.960;10.954;2022-09-09T07:59:16;5.78;;;2.17;;
10343;SDS011;5217;43.960;10.954;2022-09-09T08:01:45;6.65;;;2.20;;
10343;SDS011;5217;43.960;10.954;2022-09-09T08:04:16;7.38;;;2.28;;
10343;SDS011;5217;43.960;10.954;2022-09-09T08:06:46;6.22;;;2.22;;
10343;SDS011;5217;43.960;10.954;2022-09-09T08:09:18;7.65;;;2.38;;
10343;SDS011;5217;43.960;10.954;2022-09-09T08:11:47;7.07;;;2.10;;
10343;SDS011;5217;43.960;10.954;2022-09-09T08:14:16;8.95;;;2.67;;
10343;SDS011;5217;43.960;10.954;2022-09-09T08:16:45;4.70;;;2.33;;
10343;SDS011;5217;43.960;10.954;2022-09-09T08:19:15;6.38;;;2.40;;
10343;SDS011;5217;43.960;10.954;2022-09-09T08:21:44;5.95;;;2.22;;
10343;SDS011;5217;43.960;10.954;2022-09-09T08:24:13;6.15;;;2.50;;
10343;SDS011;5217;43.960;10.954;2022-09-09T08:26:43;4.63;;;2.20;;
10343;SDS011;5217;43.960;10.954;2022-09-09T08:29:13;7.63;;;2.42;;
10343;SDS011;5217;43.960;10.954;2022-09-09T08:31:43;7.78;;;2.30;;
10343;SDS011;5217;43.960;10.954;2022-09-09T08:34:13;5.50;;;2.22;;
10343;SDS011;5217;43.960;10.954;2022-09-09T08:36:43;4.97;;;1.85;;
10343;SDS011;5217;43.960;10.954;2022-09-09T08:39:12;6.53;;;2.00;;
10343;SDS011;5217;43.960;10.954;2022-09-09T08:44:56;8.05;;;2.80;;
10343;SDS011;5217;43.960;10.954;2022-09-09T08:47:35;6.20;;;2.55;;
10343;SDS011;5217;43.960;10.954;2022-09-09T08:50:17;4.53;;;2.00;;
10343;SDS011;5217;43.960;10.954;2022-09-09T08:52:53;5.72;;;2.20;;
10343;SDS011;5217;43.960;10.954;2022-09-09T08:55:34;8.73;;;2.90;;
10343;SDS011;5217;43.960;10.954;2022-09-09T08:58:09;9.05;;;2.53;;
10343;SDS011;5217;43.960;10.954;2022-09-09T09:00:47;9.45;;;2.63;;
10343;SDS011;5217;43.960;10.954;2022-09-09T09:03:28;7.57;;;2.30;;
10343;SDS011;5217;43.960;10.954;2022-09-09T09:06:04;8.95;;;2.70;;
10343;SDS011;5217;43.960;10.954;2022-09-09T09:08:43;6.63;;;2.33;;
10343;SDS011;5217;43.960;10.954;2022-09-09T09:11:17;6.15;;;2.30;;
10343;SDS011;5217;43.960;10.954;2022-09-09T09:13:48;6.53;;;2.40;;
10343;SDS011;5217;43.960;10.954;2022-09-09T09:16:23;4.88;;;2.30;;
10343;SDS011;5217;43.960;10.954;2022-09-09T09:18:58;8.07;;;2.58;;
10343;SDS011;5217;43.960;10.954;2022-09-09T09:21:29;9.27;;;2.50;;
10343;SDS011;5217;43.960;10.954;2022-09-09T09:24:02;6.55;;;2.30;;
10343;SDS011;5217;43.960;10.954;2022-09-09T09:26:47;5.90;;;2.38;;
10343;SDS011;5217;43.960;10.954;2022-09-09T09:29:18;4.63;;;2.17;;
10343;SDS011;5217;43.960;10.954;2022-09-09T09:31:48;7.25;;;1.80;;
10343;SDS011;5217;43.960;10.954;2022-09-09T09:34:21;8.32;;;2.40;;
10343;SDS011;5217;43.960;10.954;2022-09-09T09:36:52;6.18;;;1.90;;
10343;SDS011;5217;43.960;10.954;2022-09-09T09:39:24;10.23;;;2.22;;
10343;SDS011;5217;43.960;10.954;2022-09-09T09:42:13;22.73;;;2.40;;
10343;SDS011;5217;43.960;10.954;2022-09-09T09:44:49;18.40;;;2.13;;
10343;SDS011;5217;43.960;10.954;2022-09-09T09:47:19;6.40;;;2.10;;
10343;SDS011;5217;43.960;10.954;2022-09-09T09:49:51;44.65;;;3.15;;
10343;SDS011;5217;43.960;10.954;2022-09-09T09:52:21;7.35;;;1.90;;
10343;SDS011;5217;43.960;10.954;2022-09-09T09:54:52;7.55;;;1.92;;
10343;SDS011;5217;43.960;10.954;2022-09-09T09:57:22;3.78;;;1.63;;
10343;SDS011;5217;43.960;10.954;2022-09-09T10:00:04;5.45;;;1.80;;
10343;SDS011;5217;43.960;10.954;2022-09-09T10:02:43;6.63;;;2.15;;
10343;SDS011;5217;43.960;10.954;2022-09-09T10:05:17;6.30;;;1.80;;
10343;SDS011;5217;43.960;10.954;2022-09-09T10:08:02;10.23;;;2.25;;
10343;SDS011;5217;43.960;10.954;2022-09-09T10:10:35;5.30;;;1.80;;
10343;SDS011;5217;43.960;10.954;2022-09-09T10:13:15;4.25;;;1.75;;
10343;SDS011;5217;43.960;10.954;2022-09-09T10:15:55;4.18;;;1.65;;
10343;SDS011;5217;43.960;10.954;2022-09-09T10:18:35;5.32;;;2.10;;
10343;SDS011;5217;43.960;10.954;2022-09-09T10:21:13;4.45;;;1.88;;
10343;SDS011;5217;43.960;10.954;2022-09-09T10:24:00;6.55;;;1.65;;
10343;SDS011;5217;43.960;10.954;2022-09-09T10:26:39;4.60;;;1.70;;
10343;SDS011;5217;43.960;10.954;2022-09-09T10:29:16;5.00;;;1.90;;
10343;SDS011;5217;43.960;10.954;2022-09-09T10:32:02;3.13;;;1.42;;
10343;SDS011;5217;43.960;10.954;2022-09-09T10:34:47;4.55;;;1.60;;
10343;SDS011;5217;43.960;10.954;2022-09-09T10:37:28;6.40;;;1.85;;
10343;SDS011;5217;43.960;10.954;2022-09-09T10:40:08;7.15;;;2.05;;
10343;SDS011;5217;43.960;10.954;2022-09-09T10:42:51;6.65;;;2.28;;
10343;SDS011;5217;43.960;10.954;2022-09-09T10:45:23;4.30;;;1.80;;
10343;SDS011;5217;43.960;10.954;2022-09-09T10:48:05;6.10;;;1.80;;
10343;SDS011;5217;43.960;10.954;2022-09-09T10:50:46;6.43;;;2.03;;
10343;SDS011;5217;43.960;10.954;2022-09-09T10:53:34;5.97;;;1.90;;
10343;SDS011;5217;43.960;10.954;2022-09-09T10:56:07;6.97;;;2.00;;
10343;SDS011;5217;43.960;10.954;2022-09-09T10:58:39;7.40;;;2.22;;
10343;SDS011;5217;43.960;10.954;2022-09-09T11:01:14;6.20;;;2.20;;
10343;SDS011;5217;43.960;10.954;2022-09-09T11:03:49;5.35;;;2.00;;
10343;SDS011;5217;43.960;10.954;2022-09-09T11:06:24;7.07;;;2.08;;
10343;SDS011;5217;43.960;10.954;2022-09-09T11:08:59;5.70;;;1.88;;
10343;SDS011;5217;43.960;10.954;2022-09-09T11:11:32;6.50;;;1.80;;
10343;SDS011;5217;43.960;10.954;2022-09-09T11:14:09;5.22;;;2.00;;
10343;SDS011;5217;43.960;10.954;2022-09-09T11:16:44;4.93;;;1.80;;
10343;SDS011;5217;43.960;10.954;2022-09-09T11:19:19;5.43;;;2.00;;
10343;SDS011;5217;43.960;10.954;2022-09-09T11:21:53;6.18;;;2.22;;
10343;SDS011;5217;43.960;10.954;2022-09-09T11:24:25;4.90;;;2.00;;
10343;SDS011;5217;43.960;10.954;2022-09-09T11:26:57;4.05;;;1.45;;
10343;SDS011;5217;43.960;10.954;2022-09-09T11:29:44;4.28;;;1.52;;
10343;SDS011;5217;43.960;10.954;2022-09-09T11:32:34;4.32;;;2.00;;
10343;SDS011;5217;43.960;10.954;2022-09-09T11:35:31;4.60;;;2.15;;
10343;SDS011;5217;43.960;10.954;2022-09-09T11:38:18;5.95;;;2.13;;
10343;SDS011;5217;43.960;10.954;2022-09-09T11:40:53;10.25;;;2.05;;
10343;SDS011;5217;43.960;10.954;2022-09-09T11:43:25;6.72;;;1.90;;
10343;SDS011;5217;43.960;10.954;2022-09-09T11:45:56;4.75;;;2.00;;
10343;SDS011;5217;43.960;10.954;2022-09-09T11:48:29;6.38;;;1.90;;
10343;SDS011;5217;43.960;10.954;2022-09-09T11:51:04;6.05;;;2.25;;
10343;SDS011;5217;43.960;10.954;2022-09-09T11:53:47;4.05;;;1.70;;
10343;SDS011;5217;43.960;10.954;2022-09-09T11:56:29;5.13;;;2.00;;
10343;SDS011;5217;43.960;10.954;2022-09-09T11:59:00;5.05;;;1.77;;
10343;SDS011;5217;43.960;10.954;2022-09-09T12:01:33;4.95;;;1.98;;
10343;SDS011;5217;43.960;10.954;2022-09-09T12:04:10;4.28;;;2.08;;
10343;SDS011;5217;43.960;10.954;2022-09-09T12:07:02;5.57;;;2.13;;
10343;SDS011;5217;43.960;10.954;2022-09-09T12:09:43;6.40;;;2.20;;
10343;SDS011;5217;43.960;10.954;2022-09-09T12:12:21;4.53;;;1.92;;
10343;SDS011;5217;43.960;10.954;2022-09-09T12:14:55;4.57;;;2.03;;
10343;SDS011;5217;43.960;10.954;2022-09-09T12:17:29;4.65;;;1.90;;
10343;SDS011;5217;43.960;10.954;2022-09-09T12:20:00;5.05;;;2.15;;
10343;SDS011;5217;43.960;10.954;2022-09-09T12:22:43;4.88;;;1.95;;
10343;SDS011;5217;43.960;10.954;2022-09-09T12:25:27;4.00;;;2.00;;
10343;SDS011;5217;43.960;10.954;2022-09-09T12:28:04;4.55;;;1.70;;
10343;SDS011;5217;43.960;10.954;2022-09-09T12:30:41;4.10;;;1.67;;
10343;SDS011;5217;43.960;10.954;2022-09-09T12:33:18;4.18;;;1.70;;
10343;SDS011;5217;43.960;10.954;2022-09-09T12:35:49;3.45;;;1.67;;
10343;SDS011;5217;43.960;10.954;2022-09-09T12:38:25;2.85;;;1.50;;
10343;SDS011;5217;43.960;10.954;2022-09-09T12:40:59;4.95;;;1.60;;
10343;SDS011;5217;43.960;10.954;2022-09-09T12:43:28;4.18;;;1.83;;
10343;SDS011;5217;43.960;10.954;2022-09-09T12:45:58;2.97;;;1.60;;
10343;SDS011;5217;43.960;10.954;2022-09-09T12:48:33;8.32;;;1.88;;
10343;SDS011;5217;43.960;10.954;2022-09-09T12:51:15;6.20;;;2.08;;
10343;SDS011;5217;43.960;10.954;2022-09-09T12:53:54;3.90;;;1.85;;
10343;SDS011;5217;43.960;10.954;2022-09-09T12:56:24;7.15;;;2.00;;
10343;SDS011;5217;43.960;10.954;2022-09-09T12:58:57;3.00;;;1.52;;
10343;SDS011;5217;43.960;10.954;2022-09-09T13:01:41;5.45;;;1.50;;
10343;SDS011;5217;43.960;10.954;2022-09-09T13:04:21;3.95;;;1.60;;
10343;SDS011;5217;43.960;10.954;2022-09-09T13:07:24;5.32;;;1.63;;
10343;SDS011;5217;43.960;10.954;2022-09-09T13:10:07;3.78;;;1.50;;
10343;SDS011;5217;43.960;10.954;2022-09-09T13:13:02;4.25;;;1.65;;
10343;SDS011;5217;43.960;10.954;2022-09-09T13:15:52;3.58;;;1.60;;
10343;SDS011;5217;43.960;10.954;2022-09-09T13:18:33;3.88;;;1.58;;
10343;SDS011;5217;43.960;10.954;2022-09-09T13:21:18;3.75;;;1.58;;
10343;SDS011;5217;43.960;10.954;2022-09-09T13:24:00;3.65;;;1.55;;
10343;SDS011;5217;43.960;10.954;2022-09-09T13:26:40;3.20;;;1.50;;
10343;SDS011;5217;43.960;10.954;2022-09-09T13:29:15;6.10;;;1.65;;
10343;SDS011;5217;43.960;10.954;2022-09-09T13:31:53;3.85;;;1.58;;
10343;SDS011;5217;43.960;10.954;2022-09-09T13:34:56;5.45;;;1.60;;
10343;SDS011;5217;43.960;10.954;2022-09-09T13:37:59;4.13;;;1.80;;
10343;SDS011;5217;43.960;10.954;2022-09-09T13:40:52;2.95;;;1.42;;
10343;SDS011;5217;43.960;10.954;2022-09-09T13:43:27;3.05;;;1.60;;
10343;SDS011;5217;43.960;10.954;2022-09-09T13:45:57;3.53;;;1.70;;
10343;SDS011;5217;43.960;10.954;2022-09-09T13:48:28;5.30;;;1.60;;
10343;SDS011;5217;43.960;10.954;2022-09-09T13:51:01;4.88;;;1.80;;
10343;SDS011;5217;43.960;10.954;2022-09-09T13:53:32;3.50;;;1.58;;
10343;SDS011;5217;43.960;10.954;2022-09-09T13:56:01;4.00;;;1.45;;
10343;SDS011;5217;43.960;10.954;2022-09-09T13:58:31;3.40;;;1.40;;
10343;SDS011;5217;43.960;10.954;2022-09-09T14:00:59;4.20;;;1.73;;
10343;SDS011;5217;43.960;10.954;2022-09-09T14:03:28;3.00;;;1.52;;
10343;SDS011;5217;43.960;10.954;2022-09-09T14:05:56;3.63;;;1.50;;
10343;SDS011;5217;43.960;10.954;2022-09-09T14:08:26;3.40;;;1.25;;
10343;SDS011;5217;43.960;10.954;2022-09-09T14:11:03;3.22;;;1.40;;
10343;SDS011;5217;43.960;10.954;2022-09-09T14:13:33;3.78;;;1.52;;
10343;SDS011;5217;43.960;10.954;2022-09-09T14:16:04;3.00;;;1.48;;
10343;SDS011;5217;43.960;10.954;2022-09-09T14:18:32;3.33;;;1.60;;
10343;SDS011;5217;43.960;10.954;2022-09-09T14:21:01;3.00;;;1.35;;
10343;SDS011;5217;43.960;10.954;2022-09-09T14:23:30;2.78;;;1.30;;
10343;SDS011;5217;43.960;10.954;2022-09-09T14:25:59;4.18;;;1.38;;
10343;SDS011;5217;43.960;10.954;2022-09-09T14:28:28;4.15;;;1.38;;
10343;SDS011;5217;43.960;10.954;2022-09-09T14:31:20;3.08;;;1.30;;
10343;SDS011;5217;43.960;10.954;2022-09-09T14:33:49;3.88;;;1.45;;
10343;SDS011;5217;43.960;10.954;2022-09-09T14:36:18;2.08;;;1.23;;
10343;SDS011;5217;43.960;10.954;2022-09-09T14:38:47;2.58;;;1.20;;
10343;SDS011;5217;43.960;10.954;2022-09-09T14:41:17;3.75;;;1.55;;
10343;SDS011;5217;43.960;10.954;2022-09-09T14:43:50;3.85;;;1.52;;
10343;SDS011;5217;43.960;10.954;2022-09-09T14:46:20;3.47;;;1.48;;
10343;SDS011;5217;43.960;10.954;2022-09-09T14:48:49;4.10;;;1.48;;
10343;SDS011;5217;43.960;10.954;2022-09-09T14:51:23;4.15;;;1.42;;
10343;SDS011;5217;43.960;10.954;2022-09-09T14:53:54;2.00;;;1.33;;
10343;SDS011;5217;43.960;10.954;2022-09-09T14:56:33;6.00;;;1.70;;
10343;SDS011;5217;43.960;10.954;2022-09-09T14:59:11;5.63;;;1.60;;
10343;SDS011;5217;43.960;10.954;2022-09-09T15:01:55;4.80;;;1.70;;
10343;SDS011;5217;43.960;10.954;2022-09-09T15:04:23;2.53;;;1.35;;
10343;SDS011;5217;43.960;10.954;2022-09-09T15:06:52;2.63;;;1.50;;
10343;SDS011;5217;43.960;10.954;2022-09-09T15:09:20;2.42;;;1.58;;
10343;SDS011;5217;43.960;10.954;2022-09-09T15:11:49;3.38;;;1.50;;
10343;SDS011;5217;43.960;10.954;2022-09-09T15:14:20;2.00;;;1.13;;
10343;SDS011;5217;43.960;10.954;2022-09-09T15:16:56;4.25;;;1.50;;
10343;SDS011;5217;43.960;10.954;2022-09-09T15:19:29;1.85;;;1.40;;
10343;SDS011;5217;43.960;10.954;2022-09-09T15:22:11;2.90;;;1.52;;
10343;SDS011;5217;43.960;10.954;2022-09-09T15:24:45;3.10;;;1.23;;
10343;SDS011;5217;43.960;10.954;2022-09-09T15:27:13;4.30;;;1.50;;
10343;SDS011;5217;43.960;10.954;2022-09-09T15:29:46;2.45;;;1.30;;